Time;durP1;ratioP1;P1;durP2;ratioP2;P2;SDS_P1;SDS_P2;PMS_P1;PMS_P2;Temp;Humidity;BMP_temperature;BMP_pressure;BME280_temperature;BME280_humidity;BME280_pressure;Samples;Min_cycle;Max_cycle;Signal;HPM_P1;HPM_P2
2020/12/13 00:00:12;;;;;;;20.55;10.55;;;-0.70;67.00;;;;;;5074657;28;20041;-83
2020/12/13 00:02:38;;;;;;;20.48;9.43;;;-0.70;67.00;;;;;;5073861;28;20043;-83
2020/12/13 00:05:05;;;;;;;17.42;9.18;;;-0.70;67.00;;;;;;5075091;28;20119;-82
2020/12/13 00:07:31;;;;;;;17.63;10.48;;;-0.70;66.90;;;;;;5075099;28;20028;-82
2020/12/13 00:09:58;;;;;;;18.52;9.45;;;-0.70;67.10;;;;;;5074429;28;20051;-82
2020/12/13 00:12:23;;;;;;;20.17;9.77;;;-0.60;67.10;;;;;;5074458;28;20036;-82
2020/12/13 00:14:50;;;;;;;19.77;9.55;;;-0.70;67.10;;;;;;5074541;28;20040;-82
2020/12/13 00:17:19;;;;;;;18.85;9.23;;;-0.60;67.10;;;;;;5075304;28;20403;-82
2020/12/13 00:19:45;;;;;;;17.70;10.02;;;-0.60;67.20;;;;;;5074506;28;20040;-79
2020/12/13 00:22:10;;;;;;;17.10;9.18;;;-0.60;67.20;;;;;;5056649;28;20040;-80
2020/12/13 00:24:37;;;;;;;18.60;10.30;;;-0.60;67.30;;;;;;5074067;28;20041;-80
2020/12/13 00:27:02;;;;;;;18.75;9.02;;;-0.60;67.20;;;;;;5073994;28;20161;-80
2020/12/13 00:29:28;;;;;;;17.52;8.82;;;-0.60;67.10;;;;;;5056434;28;20098;-80
2020/12/13 00:31:54;;;;;;;17.92;8.80;;;-0.60;67.30;;;;;;5074984;28;20094;-80
2020/12/13 00:34:21;;;;;;;18.95;8.90;;;-0.60;67.40;;;;;;5074309;28;20040;-79
2020/12/13 00:36:51;;;;;;;17.23;8.52;;;-0.60;67.20;;;;;;5074506;28;20025;-79
2020/12/13 00:39:18;;;;;;;19.88;9.50;;;-0.60;67.40;;;;;;5056283;28;20119;-81
2020/12/13 00:41:54;;;;;;;19.77;9.57;;;-0.60;67.30;;;;;;5073546;28;20039;-79
2020/12/13 00:44:21;;;;;;;16.48;9.40;;;-0.60;67.40;;;;;;5074242;28;20395;-79
2020/12/13 00:46:47;;;;;;;17.17;8.60;;;-0.60;67.20;;;;;;5055792;28;20039;-79
2020/12/13 00:49:15;;;;;;;19.88;9.20;;;-0.50;67.30;;;;;;5055878;28;20081;-80
2020/12/13 00:51:43;;;;;;;20.63;9.90;;;-0.60;67.70;;;;;;5055574;28;20074;-79
2020/12/13 00:54:09;;;;;;;21.02;10.60;;;-0.60;67.50;;;;;;5073045;28;20036;-79
2020/12/13 00:56:36;;;;;;;19.75;9.82;;;-0.60;67.60;;;;;;5073945;28;20040;-80
2020/12/13 00:59:03;;;;;;;19.35;9.25;;;-0.60;67.90;;;;;;5055840;28;20100;-80
2020/12/13 01:01:29;;;;;;;17.77;9.07;;;-0.60;67.90;;;;;;5073812;28;20110;-80
2020/12/13 01:03:55;;;;;;;18.52;9.55;;;-0.50;67.60;;;;;;5055993;28;20044;-81
2020/12/13 01:06:24;;;;;;;15.35;8.65;;;-0.50;67.50;;;;;;5073624;28;20040;-81
2020/12/13 01:08:54;;;;;;;18.23;8.73;;;-0.50;67.70;;;;;;5073598;28;20507;-82
2020/12/13 01:11:25;;;;;;;19.70;9.82;;;-0.50;67.80;;;;;;5073378;28;20044;-81
2020/12/13 01:13:52;;;;;;;16.45;8.57;;;-0.60;67.70;;;;;;5073808;28;20036;-81
2020/12/13 01:16:18;;;;;;;17.75;8.77;;;-0.50;67.90;;;;;;5073559;28;20186;-81
2020/12/13 01:18:45;;;;;;;18.42;9.43;;;-0.50;67.90;;;;;;5073132;28;20385;-81
2020/12/13 01:21:24;;;;;;;19.65;9.05;;;-0.50;68.00;;;;;;5073327;28;20033;-81
2020/12/13 01:23:53;;;;;;;16.05;8.43;;;-0.50;68.20;;;;;;5073760;28;20039;-81
2020/12/13 01:26:21;;;;;;;17.40;8.68;;;-0.50;68.30;;;;;;5055252;28;20098;-80
2020/12/13 01:28:48;;;;;;;17.10;8.48;;;-0.60;68.30;;;;;;5055400;28;20041;-81
2020/12/13 01:31:16;;;;;;;20.23;8.73;;;-0.50;68.40;;;;;;5073035;28;20475;-81
2020/12/13 01:33:45;;;;;;;19.23;8.20;;;-0.50;68.20;;;;;;5073652;28;20039;-80
2020/12/13 01:36:16;;;;;;;17.00;9.25;;;-0.50;68.20;;;;;;5073137;28;20484;-79
2020/12/13 01:38:43;;;;;;;18.58;8.90;;;-0.50;68.30;;;;;;5055514;28;20048;-79
2020/12/13 01:41:09;;;;;;;17.33;8.75;;;-0.50;68.40;;;;;;5054925;28;20037;-80
2020/12/13 01:43:36;;;;;;;18.83;9.77;;;-0.40;68.20;;;;;;5073647;28;20068;-79
2020/12/13 01:46:02;;;;;;;16.27;8.20;;;-0.30;68.00;;;;;;5072106;28;20040;-79
2020/12/13 01:48:28;;;;;;;17.45;8.95;;;-0.40;68.00;;;;;;5073262;28;20447;-79
2020/12/13 01:52:41;;;;;;;13.55;7.70;;;-0.40;68.00;;;;;;5055059;28;20032;-79
2020/12/13 01:54:03;;;;;;;15.98;7.72;;;-0.40;68.00;;;;;;5059413;28;20044;-81
2020/12/13 01:56:32;;;;;;;15.95;8.10;;;-0.40;68.00;;;;;;5073001;28;20040;-79
2020/12/13 01:59:01;;;;;;;17.10;7.72;;;-0.30;68.00;;;;;;5073074;28;20040;-80
2020/12/13 02:01:28;;;;;;;13.60;8.05;;;-0.30;67.70;;;;;;5055376;28;20101;-80
2020/12/13 02:03:58;;;;;;;16.10;7.70;;;-0.30;67.70;;;;;;5073669;28;20032;-79
2020/12/13 02:06:28;;;;;;;18.70;8.07;;;-0.30;67.60;;;;;;5076798;28;20041;-80
2020/12/13 02:08:54;;;;;;;15.60;7.90;;;-0.30;67.60;;;;;;5077065;28;20028;-80
2020/12/13 02:11:20;;;;;;;15.82;7.57;;;-0.30;67.40;;;;;;5075563;28;20039;-79
2020/12/13 02:13:50;;;;;;;11.88;6.22;;;-0.20;67.30;;;;;;5076991;28;20032;-79
2020/12/13 02:16:18;;;;;;;18.00;8.80;;;-0.30;67.30;;;;;;5076747;28;20056;-81
2020/12/13 02:18:44;;;;;;;16.92;8.45;;;-0.30;67.30;;;;;;5076580;28;20033;-79
2020/12/13 02:21:11;;;;;;;15.10;8.20;;;-0.30;67.40;;;;;;5075526;28;20044;-79
2020/12/13 02:23:39;;;;;;;15.02;8.23;;;-0.30;67.30;;;;;;5076374;28;20039;-80
2020/12/13 02:26:24;;;;;;;13.40;8.30;;;-0.30;67.10;;;;;;5058626;28;20060;-80
2020/12/13 02:28:50;;;;;;;15.10;8.25;;;-0.30;67.00;;;;;;5076815;28;20047;-81
2020/12/13 02:31:16;;;;;;;15.18;6.90;;;-0.30;67.10;;;;;;5076324;28;20048;-80
2020/12/13 02:33:42;;;;;;;15.73;8.30;;;-0.30;67.20;;;;;;5076651;28;20143;-79
2020/12/13 02:36:07;;;;;;;14.63;7.53;;;-0.40;67.10;;;;;;5076018;28;20555;-81
2020/12/13 02:38:33;;;;;;;16.20;8.32;;;-0.40;67.00;;;;;;5076561;28;20082;-81
2020/12/13 02:41:01;;;;;;;14.85;8.10;;;-0.40;67.00;;;;;;5075682;28;20452;-82
2020/12/13 02:43:27;;;;;;;14.20;8.10;;;-0.30;66.90;;;;;;5076759;28;20059;-81
2020/12/13 02:45:53;;;;;;;14.85;7.45;;;-0.30;66.90;;;;;;5058837;28;20068;-81
2020/12/13 02:48:19;;;;;;;13.55;7.18;;;-0.30;66.70;;;;;;5058607;28;20083;-80
2020/12/13 02:50:45;;;;;;;14.30;7.70;;;-0.30;66.60;;;;;;5076255;28;20048;-81
2020/12/13 02:53:11;;;;;;;15.82;7.07;;;-0.30;66.50;;;;;;5075899;28;20400;-80
2020/12/13 02:55:37;;;;;;;12.30;6.90;;;-0.20;66.30;;;;;;5076019;28;20171;-81
2020/12/13 02:58:03;;;;;;;14.07;7.75;;;-0.30;66.20;;;;;;5076430;28;20047;-81
2020/12/13 03:00:29;;;;;;;12.57;6.50;;;-0.30;66.30;;;;;;5080893;28;20479;-80
2020/12/13 03:02:55;;;;;;;13.85;6.65;;;-0.30;66.30;;;;;;5076099;28;20032;-80
2020/12/13 03:05:21;;;;;;;13.05;7.13;;;-0.30;66.30;;;;;;5075863;28;20032;-79
2020/12/13 03:07:47;;;;;;;11.18;6.72;;;-0.30;66.10;;;;;;5075838;28;20074;-79
2020/12/13 03:10:12;;;;;;;13.93;6.70;;;-0.30;66.10;;;;;;5075711;28;20119;-80
2020/12/13 03:12:38;;;;;;;13.00;6.70;;;-0.20;65.90;;;;;;5058159;28;20186;-79
2020/12/13 03:15:04;;;;;;;12.48;6.47;;;-0.20;65.90;;;;;;5075412;28;20081;-80
2020/12/13 03:17:30;;;;;;;13.18;6.18;;;-0.20;65.80;;;;;;5074385;28;20051;-80
2020/12/13 03:19:56;;;;;;;11.77;6.35;;;-0.20;65.80;;;;;;5075484;28;20055;-79
2020/12/13 03:22:22;;;;;;;10.52;5.80;;;-0.20;65.80;;;;;;5075540;28;20035;-80
2020/12/13 03:24:48;;;;;;;12.25;6.00;;;-0.20;65.60;;;;;;5075415;28;20029;-80
2020/12/13 03:27:14;;;;;;;10.80;5.93;;;-0.20;65.60;;;;;;5074671;28;20119;-81
2020/12/13 03:29:40;;;;;;;15.02;6.68;;;-0.20;65.50;;;;;;5075556;28;20519;-80
2020/12/13 03:32:05;;;;;;;11.50;5.72;;;-0.10;65.50;;;;;;5075716;28;20519;-79
2020/12/13 03:34:31;;;;;;;11.82;6.25;;;-0.10;65.30;;;;;;5057421;28;20067;-80
2020/12/13 03:36:57;;;;;;;11.45;6.05;;;-0.10;65.10;;;;;;5074977;28;20035;-79
2020/12/13 03:39:23;;;;;;;12.70;6.82;;;0.00;65.10;;;;;;5075244;28;20109;-80
2020/12/13 03:41:49;;;;;;;12.25;5.90;;;0.00;65.00;;;;;;5075269;28;20044;-80
2020/12/13 03:44:15;;;;;;;12.25;6.25;;;-0.10;65.70;;;;;;5057534;28;20495;-80
2020/12/13 03:46:41;;;;;;;13.07;6.50;;;-0.10;65.10;;;;;;5075407;28;20043;-80
2020/12/13 03:49:08;;;;;;;13.38;6.38;;;-0.10;65.10;;;;;;5075032;28;20119;-80
2020/12/13 03:51:33;;;;;;;11.23;6.25;;;-0.10;65.20;;;;;;5075108;28;20071;-81
2020/12/13 03:53:59;;;;;;;12.68;6.22;;;-0.10;65.30;;;;;;5074685;28;20640;-81
2020/12/13 03:56:25;;;;;;;11.52;6.57;;;-0.10;65.50;;;;;;5074586;28;20071;-82
2020/12/13 03:58:51;;;;;;;12.05;6.20;;;-0.10;65.50;;;;;;5074996;28;20032;-82
2020/12/13 04:01:17;;;;;;;10.00;5.43;;;-0.10;65.10;;;;;;5073434;28;20048;-82
2020/12/13 04:03:43;;;;;;;11.10;5.82;;;-0.10;64.90;;;;;;5074633;28;20526;-82
2020/12/13 04:06:08;;;;;;;9.38;4.82;;;-0.10;65.00;;;;;;5074299;28;20040;-82
2020/12/13 04:08:34;;;;;;;9.98;5.18;;;-0.10;64.70;;;;;;5056426;28;20028;-81
2020/12/13 04:11:00;;;;;;;9.60;5.55;;;-0.10;64.60;;;;;;5074314;28;20037;-79
2020/12/13 04:13:26;;;;;;;12.82;6.30;;;0.00;64.60;;;;;;5060529;28;20062;-79
2020/12/13 04:15:52;;;;;;;10.57;4.82;;;0.00;64.70;;;;;;5057964;28;20147;-79
2020/12/13 04:18:18;;;;;;;10.13;4.90;;;0.00;64.50;;;;;;5074494;28;20460;-80
2020/12/13 04:20:44;;;;;;;8.43;5.30;;;0.00;64.50;;;;;;5074157;28;20486;-79
2020/12/13 04:23:09;;;;;;;11.20;5.25;;;0.00;64.30;;;;;;5074600;28;20052;-79
2020/12/13 04:25:35;;;;;;;9.77;5.32;;;0.00;64.50;;;;;;5074352;28;20107;-81
2020/12/13 04:28:01;;;;;;;9.68;4.60;;;0.00;64.30;;;;;;5074359;28;20033;-81
2020/12/13 04:30:27;;;;;;;10.02;4.93;;;-0.10;64.00;;;;;;5073192;28;20059;-81
2020/12/13 04:32:53;;;;;;;10.70;5.18;;;-0.10;64.30;;;;;;5074431;28;20476;-83
2020/12/13 04:35:19;;;;;;;10.27;5.78;;;-0.10;64.30;;;;;;5074506;28;20055;-82
2020/12/13 04:37:45;;;;;;;8.38;4.55;;;0.00;64.20;;;;;;5073652;28;20056;-80
2020/12/13 04:40:12;;;;;;;10.05;5.30;;;0.00;64.20;;;;;;5073908;28;20047;-80
2020/12/13 04:42:38;;;;;;;10.45;5.63;;;0.00;64.20;;;;;;5072377;28;20415;-83
2020/12/13 04:45:06;;;;;;;10.00;5.75;;;0.00;64.20;;;;;;5055867;28;20047;-81
2020/12/13 04:47:33;;;;;;;11.48;6.00;;;0.00;64.20;;;;;;5074109;28;20037;-81
2020/12/13 04:50:05;;;;;;;11.15;5.43;;;0.00;64.20;;;;;;5073973;28;20028;-81
2020/12/13 04:52:31;;;;;;;10.60;5.35;;;0.00;64.10;;;;;;5073534;28;20036;-82
2020/12/13 04:54:57;;;;;;;8.93;5.65;;;0.00;64.10;;;;;;5073797;28;20037;-81
2020/12/13 04:57:23;;;;;;;9.95;4.97;;;0.10;64.10;;;;;;5056000;28;20125;-81
2020/12/13 04:59:50;;;;;;;12.75;5.78;;;0.10;64.10;;;;;;5073723;28;20602;-81
2020/12/13 05:02:17;;;;;;;9.93;4.90;;;0.10;64.00;;;;;;5073962;28;20123;-82
2020/12/13 05:04:44;;;;;;;9.80;5.93;;;0.00;64.10;;;;;;5073739;28;20032;-81
2020/12/13 05:07:11;;;;;;;10.57;6.15;;;0.00;64.10;;;;;;5073759;28;20040;-82
2020/12/13 05:09:40;;;;;;;10.90;6.10;;;0.10;64.00;;;;;;5056228;28;20127;-81
2020/12/13 05:12:08;;;;;;;7.78;4.60;;;0.00;64.00;;;;;;5073455;28;20048;-80
2020/12/13 05:14:34;;;;;;;8.27;4.70;;;0.10;64.10;;;;;;5074183;28;20446;-80
2020/12/13 05:17:07;;;;;;;10.00;4.85;;;0.10;64.10;;;;;;5074003;28;20432;-80
2020/12/13 05:19:34;;;;;;;10.80;5.88;;;0.10;64.20;;;;;;5055789;28;20094;-80
2020/12/13 05:22:01;;;;;;;10.00;5.20;;;0.00;64.10;;;;;;5073368;28;20024;-80
2020/12/13 05:24:28;;;;;;;11.18;4.97;;;0.00;64.30;;;;;;5073536;28;20468;-81
2020/12/13 05:27:05;;;;;;;8.98;4.60;;;0.10;64.20;;;;;;5074193;28;20123;-79
2020/12/13 05:29:34;;;;;;;10.57;5.45;;;0.10;64.10;;;;;;5074143;28;20039;-80
2020/12/13 05:32:19;;;;;;;10.38;5.28;;;0.10;64.20;;;;;;5073118;28;20442;-81
2020/12/13 05:34:47;;;;;;;9.75;5.05;;;0.00;64.40;;;;;;5073544;28;20064;-78
2020/12/13 05:37:15;;;;;;;9.27;5.35;;;0.00;64.30;;;;;;5055493;28;20039;-78
2020/12/13 05:39:49;;;;;;;9.35;5.10;;;0.00;64.40;;;;;;5074322;28;20047;-78
2020/12/13 05:42:41;;;;;;;9.13;4.85;;;0.00;64.20;;;;;;5070642;28;20025;-79
2020/12/13 05:45:25;;;;;;;10.25;5.35;;;0.00;64.40;;;;;;5037939;28;20037;-79
2020/12/13 05:48:26;;;;;;;10.13;5.35;;;0.00;64.40;;;;;;5056416;28;20453;-78
2020/12/13 05:53:03;;;;;;;10.18;5.85;;;0.10;64.50;;;;;;5053649;28;20035;-78
2020/12/13 05:55:30;;;;;;;10.00;5.30;;;0.00;64.40;;;;;;5055308;28;20496;-82
2020/12/13 05:57:56;;;;;;;9.75;5.00;;;0.10;64.40;;;;;;5038245;28;20035;-78
2020/12/13 06:00:23;;;;;;;11.30;4.93;;;0.10;64.40;;;;;;5055325;28;20045;-82
2020/12/13 06:02:50;;;;;;;9.35;5.32;;;0.10;64.20;;;;;;5037253;28;20123;-80
2020/12/13 06:05:16;;;;;;;11.23;5.68;;;0.10;64.40;;;;;;5056117;28;20099;-81
2020/12/13 06:07:51;;;;;;;9.90;5.25;;;0.10;64.40;;;;;;5056681;28;20043;-84
2020/12/13 06:10:24;;;;;;;9.25;4.93;;;0.00;64.60;;;;;;5056274;28;20033;-84
2020/12/13 06:13:04;;;;;;;12.63;5.60;;;0.00;64.60;;;;;;5055066;28;20036;-83
2020/12/13 06:15:32;;;;;;;8.77;5.30;;;0.10;64.60;;;;;;5055917;28;20071;-79
2020/12/13 06:18:04;;;;;;;9.63;5.22;;;0.10;64.50;;;;;;5053959;28;20102;-84
2020/12/13 06:20:31;;;;;;;10.98;5.32;;;0.20;64.30;;;;;;5055155;28;20099;-84
2020/12/13 06:23:20;;;;;;;11.00;4.97;;;0.20;64.40;;;;;;5031196;28;20095;-84
2020/12/13 06:25:46;;;;;;;9.07;5.40;;;0.10;64.60;;;;;;5017873;28;20049;-86
2020/12/13 06:28:12;;;;;;;9.48;5.25;;;0.00;64.80;;;;;;5035004;28;20042;-85
2020/12/13 06:30:39;;;;;;;8.35;4.97;;;0.10;64.80;;;;;;5033661;28;20038;-83
2020/12/13 06:33:05;;;;;;;10.40;5.82;;;0.10;64.90;;;;;;5032825;28;20523;-83
2020/12/13 06:35:36;;;;;;;11.60;6.72;;;0.10;64.80;;;;;;5032478;28;20116;-85
2020/12/13 06:38:15;;;;;;;10.10;5.72;;;0.10;64.80;;;;;;5015453;28;20045;-80
2020/12/13 06:40:40;;;;;;;11.43;5.68;;;0.10;64.90;;;;;;5021269;28;20045;-81
2020/12/13 06:43:10;;;;;;;13.38;6.18;;;0.10;64.80;;;;;;5036694;28;20612;-82
2020/12/13 06:45:36;;;;;;;10.52;5.65;;;0.10;64.90;;;;;;5032560;28;20095;-80
2020/12/13 06:48:02;;;;;;;10.57;5.90;;;0.10;64.90;;;;;;5015465;28;20175;-80
2020/12/13 06:50:28;;;;;;;11.82;6.30;;;0.10;65.00;;;;;;5032120;28;20033;-79
2020/12/13 06:52:55;;;;;;;11.40;5.85;;;0.10;65.10;;;;;;5037919;28;20106;-82
2020/12/13 06:55:32;;;;;;;9.80;5.55;;;0.10;65.10;;;;;;5075015;28;20060;-88
2020/12/13 06:58:00;;;;;;;12.80;5.85;;;0.10;65.10;;;;;;5064040;28;20067;-85
2020/12/13 07:00:26;;;;;;;11.38;6.15;;;0.00;65.30;;;;;;5077111;28;20144;-80
2020/12/13 07:03:00;;;;;;;12.93;5.95;;;0.00;65.10;;;;;;5075824;28;20089;-82
2020/12/13 07:05:47;;;;;;;10.27;5.82;;;0.10;65.10;;;;;;5058247;28;20521;-83
2020/12/13 07:08:21;;;;;;;12.68;6.35;;;0.10;65.20;;;;;;5074843;28;20068;-81
2020/12/13 07:10:51;;;;;;;10.68;5.63;;;0.00;65.30;;;;;;5075638;28;20051;-79
2020/12/13 07:13:21;;;;;;;11.10;6.03;;;0.00;65.30;;;;;;5075696;28;20047;-82
2020/12/13 07:16:03;;;;;;;12.38;6.35;;;0.00;65.30;;;;;;5057790;28;20567;-81
2020/12/13 07:18:32;;;;;;;12.57;6.30;;;0.00;65.40;;;;;;5073677;28;20036;-80
2020/12/13 07:20:58;;;;;;;12.98;6.18;;;0.10;65.40;;;;;;5058007;28;20036;-79
2020/12/13 07:23:25;;;;;;;12.25;6.35;;;0.10;65.90;;;;;;5075717;28;20037;-79
2020/12/13 07:25:53;;;;;;;11.70;6.05;;;0.00;65.50;;;;;;5075372;28;20028;-79
2020/12/13 07:28:19;;;;;;;12.93;6.40;;;0.10;65.40;;;;;;5057316;28;20032;-82
2020/12/13 07:30:47;;;;;;;11.45;6.00;;;0.00;65.50;;;;;;5075830;28;20032;-80
2020/12/13 07:33:13;;;;;;;11.43;6.80;;;0.10;65.40;;;;;;5073967;28;20058;-80
2020/12/13 07:35:41;;;;;;;12.27;6.45;;;0.10;65.20;;;;;;5075240;28;20475;-80
2020/12/13 07:38:08;;;;;;;13.63;5.63;;;0.10;65.30;;;;;;5075082;28;20044;-80
2020/12/13 07:40:34;;;;;;;9.05;6.00;;;0.10;65.30;;;;;;5073647;28;20143;-78
2020/12/13 07:43:02;;;;;;;13.65;7.35;;;0.10;65.40;;;;;;5075208;28;20040;-79
2020/12/13 07:45:28;;;;;;;10.90;6.63;;;0.10;65.30;;;;;;5075099;28;20107;-81
2020/12/13 07:48:01;;;;;;;11.93;6.32;;;0.20;65.20;;;;;;5040286;28;20035;-79
2020/12/13 07:50:34;;;;;;;13.18;6.63;;;0.20;65.30;;;;;;5057156;28;20040;-84
2020/12/13 07:53:01;;;;;;;12.45;6.45;;;0.20;65.30;;;;;;5076554;28;20032;-82
2020/12/13 07:55:27;;;;;;;14.05;7.35;;;0.20;65.30;;;;;;5080928;28;20033;-81
2020/12/13 07:57:53;;;;;;;12.65;6.53;;;0.10;65.20;;;;;;5077001;28;20056;-88
2020/12/13 08:00:20;;;;;;;14.07;6.85;;;-0.10;65.40;;;;;;5074487;28;20041;-82
2020/12/13 08:02:45;;;;;;;14.23;7.70;;;-0.20;65.70;;;;;;5075013;28;20037;-80
2020/12/13 08:05:13;;;;;;;13.43;6.90;;;-0.30;66.00;;;;;;5074800;28;20036;-83
2020/12/13 08:07:39;;;;;;;14.80;7.50;;;-0.50;66.30;;;;;;5074930;28;20036;-83
2020/12/13 08:10:05;;;;;;;12.98;6.82;;;-0.60;66.70;;;;;;5074633;28;20040;-81
2020/12/13 08:12:34;;;;;;;12.10;6.30;;;-0.70;67.20;;;;;;5074737;28;20044;-83
2020/12/13 08:15:00;;;;;;;13.18;7.57;;;-0.70;67.40;;;;;;5074847;28;20389;-83
2020/12/13 08:17:26;;;;;;;14.90;6.43;;;-0.70;67.20;;;;;;5056994;28;20070;-82
2020/12/13 08:20:00;;;;;;;15.95;7.75;;;-0.80;67.50;;;;;;5074148;28;20044;-80
2020/12/13 08:22:28;;;;;;;13.65;7.45;;;-0.80;67.80;;;;;;5074743;28;20513;-81
2020/12/13 08:24:59;;;;;;;15.18;7.10;;;-0.80;67.90;;;;;;5074684;28;20515;-82
2020/12/13 08:27:28;;;;;;;15.32;7.70;;;-0.80;67.70;;;;;;5073307;28;20062;-86
2020/12/13 08:29:56;;;;;;;10.75;5.88;;;-0.90;67.80;;;;;;5074467;28;20036;-84
2020/12/13 08:32:23;;;;;;;13.82;7.43;;;-0.90;68.10;;;;;;5074241;28;20036;-84
2020/12/13 08:34:50;;;;;;;11.48;6.47;;;-0.80;67.90;;;;;;5074321;28;20470;-86
2020/12/13 08:37:25;;;;;;;15.07;7.40;;;-0.90;67.90;;;;;;5056769;28;20114;-80
2020/12/13 08:39:51;;;;;;;13.05;7.10;;;-0.90;68.30;;;;;;5074423;28;20037;-81
2020/12/13 08:42:24;;;;;;;13.30;7.57;;;-1.00;68.40;;;;;;5074263;28;20048;-82
2020/12/13 08:44:51;;;;;;;15.07;7.70;;;-1.00;68.40;;;;;;5073945;28;20036;-80
2020/12/13 08:47:19;;;;;;;15.52;7.60;;;-1.10;68.70;;;;;;5074573;28;20071;-78
2020/12/13 08:49:48;;;;;;;16.05;8.13;;;-1.00;69.00;;;;;;5039628;28;20029;-79
2020/12/13 08:52:18;;;;;;;15.20;7.80;;;-1.10;69.10;;;;;;5074313;28;20498;-80
2020/12/13 08:55:05;;;;;;;13.70;7.40;;;-1.00;69.20;;;;;;5074251;28;20064;-80
2020/12/13 08:57:32;;;;;;;;;;;-1.00;69.60;;;;;;5056566;28;20120;-86
2020/12/13 09:00:09;;;;;;;16.95;7.72;;;-1.10;69.90;;;;;;5073716;28;19927;-82
2020/12/13 09:02:35;;;;;;;12.38;7.03;;;-1.00;69.90;;;;;;5072789;28;20567;-83
2020/12/13 09:05:03;;;;;;;17.52;8.25;;;-1.00;69.60;;;;;;5074970;28;20071;-83
2020/12/13 09:07:32;;;;;;;13.45;7.20;;;-1.00;69.80;;;;;;5079417;28;20089;-82
2020/12/13 09:10:18;;;;;;;19.17;8.55;;;-0.90;69.90;;;;;;5074416;28;20553;-84
2020/12/13 09:12:44;;;;;;;14.80;8.30;;;-1.00;69.70;;;;;;5074497;28;20066;-87
2020/12/13 09:15:15;;;;;;;13.80;7.70;;;-0.90;69.70;;;;;;5073344;28;20032;-87
2020/12/13 09:17:41;;;;;;;14.73;7.38;;;-0.90;69.50;;;;;;5072707;28;20126;-83
2020/12/13 09:20:08;;;;;;;15.73;7.30;;;-1.00;69.80;;;;;;5073543;28;20119;-81
2020/12/13 09:22:34;;;;;;;13.77;7.95;;;-1.00;70.00;;;;;;5055416;28;20054;-81
2020/12/13 09:25:00;;;;;;;16.30;8.02;;;-1.00;70.10;;;;;;5073046;28;20032;-83
2020/12/13 09:27:27;;;;;;;15.68;8.20;;;-1.00;70.20;;;;;;5073699;28;20041;-85
2020/12/13 09:29:53;;;;;;;17.95;8.45;;;-1.00;70.00;;;;;;5073739;28;20502;-82
2020/12/13 09:32:21;;;;;;;14.73;8.18;;;-1.00;70.10;;;;;;5072108;28;20481;-82
2020/12/13 09:34:47;;;;;;;14.32;7.55;;;-1.00;70.00;;;;;;5073311;28;20033;-87
2020/12/13 09:37:19;;;;;;;14.63;7.93;;;-0.90;69.90;;;;;;5073285;28;20036;-88
2020/12/13 09:39:45;;;;;;;15.75;8.10;;;-0.90;69.90;;;;;;5073465;28;20476;-86
2020/12/13 09:42:12;;;;;;;16.15;8.48;;;-1.00;69.90;;;;;;5072260;28;20036;-87
2020/12/13 09:44:39;;;;;;;16.48;8.00;;;-0.90;69.80;;;;;;5073522;28;20037;-85
2020/12/13 09:47:05;;;;;;;15.77;8.13;;;-0.90;69.90;;;;;;5073058;28;20036;-81
2020/12/13 09:49:31;;;;;;;14.30;7.90;;;-1.00;70.00;;;;;;5073133;28;20495;-82
2020/12/13 09:52:00;;;;;;;15.88;7.70;;;-1.00;70.00;;;;;;5071841;28;20153;-83
2020/12/13 09:54:27;;;;;;;14.95;7.70;;;-1.00;70.00;;;;;;5073561;28;20025;-83
2020/12/13 09:56:53;;;;;;;14.10;8.35;;;-0.90;70.00;;;;;;5073629;28;20048;-86
2020/12/13 09:59:20;;;;;;;13.48;8.15;;;-1.00;70.30;;;;;;5073458;28;20040;-86
2020/12/13 10:01:46;;;;;;;15.80;8.38;;;-1.00;70.50;;;;;;5073161;28;20553;-83
2020/12/13 10:04:12;;;;;;;15.05;7.63;;;-1.00;71.00;;;;;;5071338;28;20124;-82
2020/12/13 10:09:23;;;;;;;14.52;8.23;;;-0.90;70.70;;;;;;5073056;28;20037;-83
2020/12/13 10:11:49;;;;;;;14.68;7.68;;;-1.00;70.90;;;;;;5073035;28;20032;-80
2020/12/13 10:14:15;;;;;;;16.60;7.93;;;-1.00;70.80;;;;;;5055102;28;20039;-84
2020/12/13 10:16:43;;;;;;;18.13;8.57;;;-0.90;70.90;;;;;;5073560;28;20052;-82
2020/12/13 10:19:09;;;;;;;13.07;7.20;;;-0.90;70.80;;;;;;5078258;28;20123;-79
2020/12/13 10:21:36;;;;;;;16.38;7.97;;;-1.00;70.90;;;;;;5073125;28;20048;-80
2020/12/13 10:24:03;;;;;;;18.58;8.80;;;-0.90;71.10;;;;;;5072452;28;20085;-78
2020/12/13 10:26:32;;;;;;;15.15;7.47;;;-0.70;70.50;;;;;;5075313;28;20396;-80
2020/12/13 10:28:58;;;;;;;16.48;8.85;;;-0.50;70.10;;;;;;5076262;28;20074;-79
2020/12/13 10:31:36;;;;;;;15.90;8.07;;;-0.30;69.80;;;;;;5076146;28;20054;-79
2020/12/13 10:34:06;;;;;;;14.15;8.55;;;-0.20;69.50;;;;;;5076933;28;20025;-79
2020/12/13 10:36:34;;;;;;;14.05;6.97;;;-0.10;69.30;;;;;;5058310;28;20036;-82
2020/12/13 10:39:03;;;;;;;13.07;7.72;;;0.00;69.20;;;;;;5076335;28;20392;-85
2020/12/13 10:41:29;;;;;;;11.88;7.13;;;0.00;69.10;;;;;;5075891;28;20076;-82
2020/12/13 10:43:55;;;;;;;15.73;8.00;;;0.10;69.10;;;;;;5075820;28;20121;-83
2020/12/13 10:46:22;;;;;;;12.60;7.07;;;0.10;69.10;;;;;;5076506;28;20043;-82
2020/12/13 10:48:48;;;;;;;13.73;7.30;;;0.20;69.00;;;;;;5076593;28;20032;-86
2020/12/13 10:51:15;;;;;;;14.13;7.97;;;0.20;69.00;;;;;;5058460;28;20032;-82
2020/12/13 10:53:42;;;;;;;15.18;7.70;;;0.30;69.10;;;;;;5076189;28;20115;-81
2020/12/13 10:56:08;;;;;;;13.43;7.78;;;0.30;69.20;;;;;;5076081;28;20050;-83
2020/12/13 10:58:34;;;;;;;17.25;8.05;;;0.30;69.20;;;;;;5076774;28;20448;-85
2020/12/13 11:01:02;;;;;;;14.70;7.80;;;0.30;69.30;;;;;;5075031;28;20135;-89
2020/12/13 11:03:29;;;;;;;13.55;7.72;;;0.40;69.50;;;;;;5076232;28;20036;-87
2020/12/13 11:05:55;;;;;;;16.17;8.73;;;0.40;69.50;;;;;;5076284;28;20033;-86
2020/12/13 11:08:23;;;;;;;16.83;9.35;;;0.40;69.80;;;;;;5081568;28;20045;-82
2020/12/13 11:10:53;;;;;;;15.50;8.60;;;0.20;70.20;;;;;;5075751;28;20111;-82
2020/12/13 11:13:19;;;;;;;20.17;9.23;;;0.00;70.80;;;;;;5075769;28;20028;-80
2020/12/13 11:15:46;;;;;;;15.52;8.73;;;0.00;71.40;;;;;;5075767;28;20061;-80
2020/12/13 11:18:15;;;;;;;17.92;9.48;;;-0.20;71.80;;;;;;5076441;28;20365;-81
2020/12/13 11:20:41;;;;;;;15.63;8.48;;;-0.20;71.80;;;;;;5075647;28;20032;-80
2020/12/13 11:23:07;;;;;;;18.85;8.93;;;-0.30;72.30;;;;;;5075765;28;20033;-80
2020/12/13 11:25:33;;;;;;;19.38;9.50;;;-0.30;72.50;;;;;;5057443;28;20127;-80
2020/12/13 11:28:01;;;;;;;17.33;8.30;;;-0.30;73.00;;;;;;5075751;28;20043;-80
2020/12/13 11:30:27;;;;;;;17.48;9.05;;;-0.40;73.10;;;;;;5082186;28;20052;-81
2020/12/13 11:32:53;;;;;;;16.50;9.10;;;-0.40;73.40;;;;;;5075676;28;20373;-81
2020/12/13 11:35:30;;;;;;;20.33;10.38;;;-0.50;74.00;;;;;;5075278;28;20047;-81
2020/12/13 11:38:33;;;;;;;17.33;8.55;;;-0.50;73.80;;;;;;5072609;28;20108;-79
2020/12/13 11:41:14;;;;;;;18.67;9.48;;;-0.50;73.60;;;;;;5058046;28;20093;-81
2020/12/13 11:44:04;;;;;;;18.70;9.57;;;-0.40;73.70;;;;;;5074903;28;20072;-81
2020/12/13 11:46:46;;;;;;;19.45;9.73;;;-0.50;74.20;;;;;;5074729;28;20040;-81
2020/12/13 11:49:23;;;;;;;19.58;10.38;;;-0.50;74.40;;;;;;5074381;28;20032;-79
2020/12/13 11:52:05;;;;;;;19.55;9.68;;;-0.50;74.70;;;;;;5074810;28;20492;-80
2020/12/13 11:54:56;;;;;;;18.35;9.48;;;-0.50;74.80;;;;;;5057002;28;20106;-81
2020/12/13 11:57:56;;;;;;;;;;;;;;;;;;;;;
2020/12/13 12:00:49;;;;;;;17.92;10.25;;;-0.60;75.20;;;;;;5074775;28;20499;-79
2020/12/13 12:03:35;;;;;;;16.85;9.35;;;-0.60;75.40;;;;;;5073239;28;20044;-80
2020/12/13 12:06:28;;;;;;;19.27;9.23;;;-0.60;75.40;;;;;;5074625;28;20067;-79
2020/12/13 12:09:07;;;;;;;18.35;10.10;;;-0.60;75.50;;;;;;5058982;28;20051;-81
2020/12/13 12:11:33;;;;;;;18.13;10.23;;;-0.50;75.30;;;;;;5074738;28;20111;-80
2020/12/13 12:14:10;;;;;;;19.60;10.48;;;-0.60;75.80;;;;;;5075153;28;20029;-80
2020/12/13 12:16:41;;;;;;;19.02;10.18;;;-0.50;75.70;;;;;;5074578;28;20483;-81
2020/12/13 12:19:15;;;;;;;18.80;9.70;;;-0.50;75.30;;;;;;5056847;28;20135;-81
2020/12/13 12:21:52;;;;;;;20.67;11.07;;;-0.50;75.80;;;;;;5074470;28;20095;-80
2020/12/13 12:24:21;;;;;;;18.08;9.98;;;-0.60;76.10;;;;;;5074498;28;20060;-80
2020/12/13 12:27:11;;;;;;;20.23;10.60;;;-0.60;76.30;;;;;;5074749;28;20040;-81
2020/12/13 12:29:44;;;;;;;;;;;-0.60;76.50;;;;;;5056751;28;20044;-82
2020/12/13 12:32:11;;;;;;;16.92;9.23;;;-0.70;76.70;;;;;;5074066;28;19935;-81
2020/12/13 12:34:37;;;;;;;18.95;9.95;;;-0.70;76.70;;;;;;5073992;28;20040;-81
2020/12/13 12:37:03;;;;;;;17.50;10.55;;;-0.60;76.50;;;;;;5076854;28;20036;-81
2020/12/13 12:39:29;;;;;;;19.38;9.82;;;-0.50;76.30;;;;;;5080693;28;20043;-82
2020/12/13 12:41:55;;;;;;;17.45;9.45;;;-0.50;76.20;;;;;;5065746;28;20396;-79
2020/12/13 12:44:21;;;;;;;17.33;9.55;;;-0.50;76.30;;;;;;5076086;28;20047;-80
2020/12/13 12:46:48;;;;;;;17.60;9.90;;;-0.50;76.40;;;;;;5073518;28;20037;-80
2020/12/13 12:49:14;;;;;;;16.58;9.55;;;-0.50;76.30;;;;;;5072948;28;20029;-80
2020/12/13 12:51:44;;;;;;;20.95;10.05;;;-0.60;76.60;;;;;;5073195;28;20071;-80
2020/12/13 12:54:10;;;;;;;19.42;9.88;;;-0.60;76.70;;;;;;5074216;28;20036;-81
2020/12/13 12:56:42;;;;;;;20.75;10.25;;;-0.60;76.90;;;;;;5074077;28;20033;-79